createdAt,value
2023-01-17T00:02:16.931Z,-0.41
2023-01-17T00:05:02.810Z,-0.64
2023-01-17T00:07:49.166Z,-1.09
2023-01-17T00:10:20.184Z,-0.95
2023-01-17T00:12:50.283Z,-0.78
2023-01-17T00:15:20.326Z,-0.70
2023-01-17T00:17:50.718Z,-0.36
2023-01-17T00:20:54.622Z,-0.71
2023-01-17T00:23:42.738Z,-0.36
2023-01-17T00:26:14.332Z,-0.07
2023-01-17T00:28:43.340Z,-0.28
2023-01-17T00:31:13.184Z,-0.14
2023-01-17T00:33:41.850Z,0.16
2023-01-17T00:36:10.822Z,-0.10
2023-01-17T00:38:39.802Z,-0.02
2023-01-17T00:41:09.599Z,-0.07
2023-01-17T00:43:55.928Z,-0.08
2023-01-17T00:46:41.738Z,-0.05
2023-01-17T00:49:28.875Z,0.09
2023-01-17T00:52:14.762Z,-0.01
2023-01-17T00:55:00.672Z,0.11
2023-01-17T00:57:46.583Z,0.06
2023-01-17T01:00:33.444Z,-0.22
2023-01-17T01:03:19.742Z,-0.18
2023-01-17T01:06:07.090Z,-0.21
2023-01-17T01:08:53.242Z,-0.21
2023-01-17T01:11:40.114Z,-0.27
2023-01-17T01:14:29.137Z,-0.32
2023-01-17T01:17:15.088Z,-0.27
2023-01-17T01:20:01.093Z,-0.25
2023-01-17T01:22:48.225Z,-0.77
2023-01-17T01:25:33.992Z,-0.39
2023-01-17T01:28:24.757Z,-0.24
2023-01-17T01:31:10.517Z,-0.28
2023-01-17T01:33:39.296Z,-0.24
2023-01-17T01:36:10.011Z,-0.64
2023-01-17T01:38:40.408Z,-0.49
2023-01-17T01:41:09.101Z,-0.58
2023-01-17T01:43:47.463Z,-0.66
2023-01-17T01:46:21.972Z,-0.46
2023-01-17T01:48:56.078Z,-0.54
2023-01-17T01:51:30.746Z,-0.46
2023-01-17T01:54:08.289Z,-0.12
2023-01-17T01:56:37.469Z,0.05
2023-01-17T01:59:09.971Z,-0.09
2023-01-17T02:01:38.894Z,-0.14
2023-01-17T02:04:10.129Z,-0.37
2023-01-17T02:06:44.756Z,-0.20
2023-01-17T02:09:17.217Z,-0.42
2023-01-17T02:11:47.911Z,-0.51
2023-01-17T02:14:17.550Z,-0.51
2023-01-17T02:17:02.236Z,-0.52
2023-01-17T02:20:01.297Z,-0.68
2023-01-17T02:23:15.562Z,-1.23
2023-01-17T02:26:28.886Z,-0.86
2023-01-17T02:29:25.995Z,-1.07
2023-01-17T02:32:01.357Z,-0.95
2023-01-17T02:34:39.379Z,-1.18
2023-01-17T02:37:16.344Z,-1.08
2023-01-17T02:39:54.729Z,-0.99
2023-01-17T02:42:30.813Z,-1.28
2023-01-17T02:44:59.234Z,-1.27
2023-01-17T02:47:31.360Z,-1.15
2023-01-17T02:50:05.076Z,-0.83
2023-01-17T02:52:53.747Z,-0.95
2023-01-17T02:55:38.086Z,-1.34
2023-01-17T02:58:24.705Z,-1.20
2023-01-17T03:01:04.828Z,-1.16
2023-01-17T03:03:46.258Z,-1.25
2023-01-17T03:06:21.120Z,-1.30
2023-01-17T03:08:52.007Z,-1.04
2023-01-17T03:11:20.605Z,-1.16
2023-01-17T03:13:49.174Z,-0.89
2023-01-17T03:16:22.377Z,-0.72
2023-01-17T03:18:53.836Z,-0.53
2023-01-17T03:21:23.711Z,-0.85
2023-01-17T03:23:52.455Z,-1.08
2023-01-17T03:26:20.869Z,-0.70
2023-01-17T03:28:49.399Z,-0.55
2023-01-17T03:31:19.907Z,-1.00
2023-01-17T03:33:48.476Z,-0.86
2023-01-17T03:36:20.346Z,-0.70
2023-01-17T03:38:48.751Z,-0.86
2023-01-17T03:41:17.248Z,-1.23
2023-01-17T03:43:45.645Z,-0.95
2023-01-17T03:46:22.737Z,-1.52
2023-01-17T03:48:51.429Z,-0.85
2023-01-17T03:51:21.670Z,-1.16
2023-01-17T03:53:50.730Z,-0.93
2023-01-17T03:56:20.102Z,-0.98
2023-01-17T03:58:48.596Z,-0.96
2023-01-17T04:01:17.257Z,-1.15
2023-01-17T04:03:45.698Z,-0.85
2023-01-17T04:06:14.017Z,-0.98
2023-01-17T04:08:43.728Z,-0.95
2023-01-17T04:11:12.067Z,-0.80
2023-01-17T04:13:40.395Z,-0.86
2023-01-17T04:16:14.564Z,-1.08
2023-01-17T04:18:43.275Z,-0.79
2023-01-17T04:21:11.861Z,-0.95
2023-01-17T04:23:40.317Z,-0.92
2023-01-17T04:26:12.911Z,-0.98
2023-01-17T04:28:41.301Z,-1.10
2023-01-17T04:31:15.262Z,-1.10
2023-01-17T04:33:44.224Z,-1.40
2023-01-17T04:36:13.127Z,-1.36
2023-01-17T04:38:41.736Z,-1.27
2023-01-17T04:41:11.633Z,-1.38
2023-01-17T04:43:40.104Z,-1.46
2023-01-17T04:46:10.967Z,-1.24
2023-01-17T04:48:39.411Z,-1.19
2023-01-17T04:51:08.012Z,-1.15
2023-01-17T04:53:36.607Z,-1.12
2023-01-17T04:56:05.847Z,-1.01
2023-01-17T04:58:36.040Z,-1.07
2023-01-17T05:01:04.934Z,-1.23
2023-01-17T05:03:34.304Z,-1.39
2023-01-17T05:06:03.159Z,-1.52
2023-01-17T05:08:31.508Z,-1.30
2023-01-17T05:11:00.097Z,-1.18
2023-01-17T05:13:28.524Z,-1.15
2023-01-17T05:15:59.546Z,-1.13
2023-01-17T05:18:28.044Z,-1.11
2023-01-17T05:21:01.628Z,-1.20
2023-01-17T05:23:30.127Z,-0.80
2023-01-17T05:25:58.613Z,-0.92
2023-01-17T05:28:30.016Z,-0.87
2023-01-17T05:30:59.931Z,-1.03
2023-01-17T05:33:28.320Z,-0.75
2023-01-17T05:35:56.912Z,-0.99
2023-01-17T05:38:25.448Z,-0.86
2023-01-17T05:40:54.279Z,-0.86
2023-01-17T05:43:22.900Z,-0.60
2023-01-17T05:45:51.447Z,-0.56
2023-01-17T05:48:21.711Z,-0.44
2023-01-17T05:50:50.350Z,-0.54
2023-01-17T05:53:19.241Z,-0.64
2023-01-17T05:55:47.788Z,-0.60
2023-01-17T05:58:19.824Z,-0.94
2023-01-17T06:00:48.916Z,-0.65
2023-01-17T06:03:18.386Z,-0.66
2023-01-17T06:05:48.258Z,-1.22
2023-01-17T06:08:17.144Z,-0.96
2023-01-17T06:10:45.749Z,-0.94
2023-01-17T06:13:20.951Z,-0.89
2023-01-17T06:15:50.144Z,-0.87
2023-01-17T06:18:19.665Z,-0.95
2023-01-17T06:20:55.146Z,-1.00
2023-01-17T06:23:25.664Z,-1.27
2023-01-17T06:25:54.396Z,-1.08
2023-01-17T06:28:24.052Z,-1.28
2023-01-17T06:30:52.585Z,-1.22
2023-01-17T06:33:21.116Z,-1.20
2023-01-17T06:35:52.754Z,-1.15
2023-01-17T06:38:22.087Z,-1.37
2023-01-17T06:40:50.547Z,-1.16
2023-01-17T06:43:19.083Z,-1.29
2023-01-17T06:45:49.832Z,-1.06
2023-01-17T06:48:19.598Z,-1.15
2023-01-17T06:50:49.755Z,-1.21
2023-01-17T06:53:19.654Z,-1.49
2023-01-17T06:55:48.017Z,-1.57
2023-01-17T06:58:16.453Z,-1.49
2023-01-17T07:00:45.032Z,-1.45
2023-01-17T07:03:21.128Z,-1.56
2023-01-17T07:05:50.259Z,-1.46
2023-01-17T07:08:21.040Z,-1.64
2023-01-17T07:10:49.878Z,-1.80
2023-01-17T07:13:18.303Z,-1.69
2023-01-17T07:15:46.718Z,-1.90
2023-01-17T07:18:20.554Z,-1.72
2023-01-17T07:20:49.138Z,-1.84
2023-01-17T07:23:20.016Z,-1.91
2023-01-17T07:25:53.667Z,-2.26
2023-01-17T07:28:22.974Z,-2.16
2023-01-17T07:30:53.126Z,-1.91
2023-01-17T07:33:22.507Z,-1.96
2023-01-17T07:35:51.087Z,-1.77
2023-01-17T07:38:21.794Z,-1.73
2023-01-17T07:40:50.254Z,-2.18
2023-01-17T07:43:18.683Z,-1.86
2023-01-17T07:45:50.548Z,-1.72
2023-01-17T07:48:20.335Z,-1.66
2023-01-17T07:50:55.106Z,-1.76
2023-01-17T07:53:26.999Z,-1.54
2023-01-17T07:55:55.878Z,-1.87
2023-01-17T07:58:24.452Z,-1.67
2023-01-17T08:00:53.328Z,-1.55
2023-01-17T08:03:21.806Z,-1.50
2023-01-17T08:05:57.796Z,-1.64
2023-01-17T08:08:27.545Z,-1.45
2023-01-17T08:10:56.338Z,-1.38
2023-01-17T08:13:25.101Z,-1.61
2023-01-17T08:15:54.692Z,-1.25
2023-01-17T08:18:23.284Z,-1.29
2023-01-17T08:20:51.664Z,-1.32
2023-01-17T08:23:20.192Z,-1.19
2023-01-17T08:25:51.164Z,-1.71
2023-01-17T08:28:19.852Z,-1.34
2023-01-17T08:30:48.443Z,-1.30
2023-01-17T08:33:17.529Z,-1.26
2023-01-17T08:35:53.626Z,-1.37
2023-01-17T08:38:23.830Z,-1.69
2023-01-17T08:40:56.222Z,-1.61
2023-01-17T08:43:25.005Z,-1.80
2023-01-17T08:45:56.007Z,-1.79
2023-01-17T08:48:27.307Z,-1.58
2023-01-17T08:50:56.553Z,-2.23
2023-01-17T08:53:25.066Z,-1.54
2023-01-17T08:56:01.341Z,-1.49
2023-01-17T08:58:32.177Z,-1.65
2023-01-17T09:01:03.452Z,-1.54
2023-01-17T09:03:33.300Z,-1.34
2023-01-17T09:06:06.984Z,-1.57
2023-01-17T09:08:36.680Z,-1.24
2023-01-17T09:11:08.284Z,-1.22
2023-01-17T09:13:37.216Z,-1.19
2023-01-17T09:16:07.463Z,-1.35
2023-01-17T09:18:37.582Z,-1.09
2023-01-17T09:21:18.254Z,-1.16
2023-01-17T09:23:47.202Z,-1.21
2023-01-17T09:26:23.510Z,-1.03
2023-01-17T09:28:52.859Z,-1.13
2023-01-17T09:31:24.536Z,-0.88
2023-01-17T09:33:54.486Z,-0.64
2023-01-17T09:36:23.921Z,-0.75
2023-01-17T09:38:58.802Z,-0.75
2023-01-17T09:41:32.594Z,-0.60
2023-01-17T09:44:11.357Z,-0.54
2023-01-17T09:46:43.745Z,-0.54
2023-01-17T09:49:21.067Z,-0.26
2023-01-17T09:51:49.678Z,-0.17
2023-01-17T09:54:24.985Z,-0.06
2023-01-17T09:57:04.296Z,0.09
2023-01-17T09:59:45.741Z,0.07
2023-01-17T10:02:45.311Z,0.03
2023-01-17T10:05:43.299Z,0.06
2023-01-17T10:08:30.945Z,0.02
2023-01-17T10:11:27.132Z,0.11
2023-01-17T10:14:21.185Z,0.04
2023-01-17T10:16:56.211Z,0.08
2023-01-17T10:19:44.951Z,-0.08
2023-01-17T10:23:05.816Z,0.01
2023-01-17T10:25:44.546Z,-0.03
2023-01-17T10:28:18.308Z,-0.09
2023-01-17T10:30:51.421Z,-0.20
2023-01-17T10:33:29.686Z,-0.05
2023-01-17T10:36:00.580Z,-0.13
2023-01-17T10:38:36.107Z,-0.05
2023-01-17T10:41:09.992Z,0.03
2023-01-17T10:43:47.551Z,0.15
2023-01-17T10:46:28.528Z,0.11
2023-01-17T10:48:58.550Z,0.23
2023-01-17T10:52:02.092Z,0.45
2023-01-17T10:54:54.734Z,0.64
2023-01-17T10:57:27.096Z,0.62
2023-01-17T11:00:01.589Z,0.84
2023-01-17T11:02:35.419Z,0.86
2023-01-17T11:05:17.256Z,1.08
2023-01-17T11:07:59.348Z,1.03
2023-01-17T11:10:42.777Z,0.80
2023-01-17T11:13:30.047Z,0.90
2023-01-17T11:16:02.343Z,0.99
2023-01-17T11:18:36.059Z,0.79
2023-01-17T11:21:13.410Z,0.98
2023-01-17T11:23:45.271Z,0.89
2023-01-17T11:26:30.634Z,0.67
2023-01-17T11:29:29.662Z,0.85
2023-01-17T11:31:58.497Z,0.80
2023-01-17T11:34:33.061Z,0.71
2023-01-17T11:37:18.136Z,0.70
2023-01-17T11:39:48.594Z,0.71
2023-01-17T11:42:34.793Z,0.54
2023-01-17T11:45:28.364Z,0.69
2023-01-17T11:48:18.536Z,0.57
2023-01-17T11:50:57.712Z,0.62
2023-01-17T11:53:30.276Z,0.44
2023-01-17T11:56:05.243Z,0.93
2023-01-17T11:58:36.784Z,1.02
2023-01-17T12:01:35.170Z,1.06
2023-01-17T12:04:25.402Z,1.15
2023-01-17T12:07:19.011Z,1.37
2023-01-17T12:09:58.487Z,1.32
2023-01-17T12:12:56.752Z,1.57
2023-01-17T12:15:40.244Z,1.65
2023-01-17T12:18:33.536Z,1.71
2023-01-17T12:21:18.620Z,1.66
2023-01-17T12:24:27.776Z,1.57
2023-01-17T12:27:04.783Z,1.62
2023-01-17T12:29:49.485Z,1.61
2023-01-17T12:32:53.136Z,1.76
2023-01-17T12:35:31.074Z,2.01
2023-01-17T12:38:07.282Z,1.91
2023-01-17T12:40:49.616Z,2.06
2023-01-17T12:43:24.927Z,2.54
2023-01-17T12:45:55.931Z,2.36
2023-01-17T12:48:30.950Z,2.26
2023-01-17T12:51:05.691Z,2.27
2023-01-17T12:53:41.652Z,2.35
2023-01-17T12:56:22.559Z,2.57
2023-01-17T12:58:56.613Z,2.89
2023-01-17T13:01:31.523Z,2.67
2023-01-17T13:04:12.827Z,2.85
2023-01-17T13:06:55.786Z,2.65
2023-01-17T13:09:26.348Z,2.45
2023-01-17T13:12:04.392Z,2.46
2023-01-17T13:14:33.543Z,2.83
2023-01-17T13:17:14.686Z,3.12
2023-01-17T13:19:51.893Z,2.94
2023-01-17T13:22:23.074Z,3.03
2023-01-17T13:25:05.659Z,2.64
2023-01-17T13:28:02.947Z,2.63
2023-01-17T13:31:03.972Z,2.96
2023-01-17T13:33:53.008Z,2.75
2023-01-17T13:36:42.792Z,2.93
2023-01-17T13:39:36.093Z,2.98
2023-01-17T13:42:19.370Z,2.75
2023-01-17T13:44:49.465Z,3.06
2023-01-17T13:47:42.841Z,3.15
2023-01-17T13:50:51.194Z,2.98
2023-01-17T13:53:49.428Z,3.22
2023-01-17T13:56:31.285Z,3.14
2023-01-17T13:59:34.583Z,3.42
2023-01-17T14:02:04.568Z,3.33
2023-01-17T14:05:09.326Z,3.24
2023-01-17T14:07:45.969Z,3.43
2023-01-17T14:10:33.694Z,3.50
2023-01-17T14:13:04.224Z,3.37
2023-01-17T14:15:36.406Z,3.57
2023-01-17T14:18:08.261Z,3.75
2023-01-17T14:21:05.348Z,3.50
2023-01-17T14:24:03.857Z,3.25
2023-01-17T14:26:46.831Z,3.17
2023-01-17T14:29:49.767Z,3.26
2023-01-17T14:32:22.330Z,3.22
2023-01-17T14:34:53.623Z,3.55
2023-01-17T14:37:34.678Z,3.53
2023-01-17T14:40:03.539Z,3.39
2023-01-17T14:42:34.240Z,3.37
2023-01-17T14:45:07.998Z,2.29
2023-01-17T14:47:39.820Z,2.90
2023-01-17T14:50:22.106Z,3.26
2023-01-17T14:53:16.839Z,3.07
2023-01-17T14:56:01.019Z,3.17
2023-01-17T14:58:31.895Z,3.23
2023-01-17T15:01:03.688Z,3.17
2023-01-17T15:03:42.887Z,2.91
2023-01-17T15:06:20.603Z,2.89
2023-01-17T15:08:51.854Z,3.02
2023-01-17T15:11:24.180Z,2.89
2023-01-17T15:13:57.527Z,3.07
2023-01-17T15:16:28.583Z,2.78
2023-01-17T15:18:58.692Z,2.74
2023-01-17T15:21:32.244Z,2.96
2023-01-17T15:24:04.269Z,3.00
2023-01-17T15:26:37.514Z,2.85
2023-01-17T15:29:08.749Z,2.69
2023-01-17T15:31:43.997Z,2.84
2023-01-17T15:34:26.899Z,2.77
2023-01-17T15:36:59.245Z,2.60
2023-01-17T15:39:31.121Z,2.07
2023-01-17T15:42:02.857Z,1.99
2023-01-17T15:44:47.507Z,1.98
2023-01-17T15:47:30.130Z,1.81
2023-01-17T15:50:00.002Z,2.01
2023-01-17T15:52:30.480Z,2.01
2023-01-17T15:55:14.746Z,1.67
2023-01-17T15:57:48.655Z,1.57
2023-01-17T16:00:28.268Z,1.54
2023-01-17T16:02:58.889Z,1.60
2023-01-17T16:05:43.711Z,1.34
2023-01-17T16:08:33.356Z,1.26
2023-01-17T16:11:06.306Z,1.00
2023-01-17T16:13:37.876Z,1.09
2023-01-17T16:16:16.324Z,0.72
2023-01-17T16:18:46.535Z,0.85
2023-01-17T16:21:22.379Z,0.59
2023-01-17T16:23:52.902Z,0.62
2023-01-17T16:26:21.670Z,0.39
2023-01-17T16:28:50.715Z,0.18
2023-01-17T16:31:19.950Z,0.36
2023-01-17T16:33:51.737Z,0.29
2023-01-17T16:36:21.539Z,-0.07
2023-01-17T16:38:53.204Z,-0.27
2023-01-17T16:41:22.260Z,-0.01
2023-01-17T16:44:01.078Z,-0.35
2023-01-17T16:46:31.076Z,-0.37
2023-01-17T16:49:02.225Z,-0.29
2023-01-17T16:51:30.960Z,-0.36
2023-01-17T16:54:01.531Z,-0.50
2023-01-17T16:56:30.019Z,-0.57
2023-01-17T16:58:58.530Z,-0.75
2023-01-17T17:01:27.028Z,-0.70
2023-01-17T17:03:55.519Z,-0.79
2023-01-17T17:06:24.109Z,-1.08
2023-01-17T17:08:52.522Z,-0.99
2023-01-17T17:11:24.595Z,-1.07
2023-01-17T17:13:53.985Z,-1.08
2023-01-17T17:16:26.488Z,-1.31
2023-01-17T17:19:00.152Z,-1.41
2023-01-17T17:21:30.263Z,-1.31
2023-01-17T17:24:01.210Z,-1.25
2023-01-17T17:26:34.478Z,-1.31
2023-01-17T17:29:06.909Z,-1.77
2023-01-17T17:31:35.585Z,-1.39
2023-01-17T17:34:07.368Z,-1.58
2023-01-17T17:36:36.455Z,-1.67
2023-01-17T17:39:09.364Z,-1.66
2023-01-17T17:41:43.776Z,-1.63
2023-01-17T17:44:12.517Z,-1.91
2023-01-17T17:46:42.249Z,-1.80
2023-01-17T17:49:10.774Z,-1.94
2023-01-17T17:51:41.530Z,-1.89
2023-01-17T17:54:12.371Z,-1.78
2023-01-17T17:56:46.533Z,-1.84
2023-01-17T17:59:18.424Z,-2.07
2023-01-17T18:01:47.663Z,-1.95
2023-01-17T18:04:16.109Z,-2.02
2023-01-17T18:06:45.514Z,-2.24
2023-01-17T18:09:14.731Z,-2.46
2023-01-17T18:11:45.688Z,-2.25
2023-01-17T18:14:17.027Z,-2.10
2023-01-17T18:16:47.147Z,-2.42
2023-01-17T18:19:18.696Z,-2.23
2023-01-17T18:21:48.599Z,-2.24
2023-01-17T18:24:18.933Z,-2.42
2023-01-17T18:26:50.541Z,-2.52
2023-01-17T18:29:21.499Z,-2.31
2023-01-17T18:31:52.236Z,-2.45
2023-01-17T18:34:24.086Z,-2.48
2023-01-17T18:36:53.038Z,-2.44
2023-01-17T18:39:24.465Z,-2.67
2023-01-17T18:41:55.073Z,-2.71
2023-01-17T18:44:24.394Z,-2.61
2023-01-17T18:46:54.441Z,-2.64
2023-01-17T18:49:22.998Z,-2.61
2023-01-17T18:51:51.848Z,-2.64
2023-01-17T18:54:21.982Z,-2.85
2023-01-17T18:56:51.156Z,-2.62
2023-01-17T18:59:23.568Z,-2.63
2023-01-17T19:01:52.211Z,-2.71
2023-01-17T19:04:21.764Z,-2.75
2023-01-17T19:06:50.212Z,-2.89
2023-01-17T19:09:19.516Z,-2.66
2023-01-17T19:11:47.995Z,-2.71
2023-01-17T19:14:16.526Z,-2.92
2023-01-17T19:16:46.496Z,-2.67
2023-01-17T19:19:16.685Z,-2.66
2023-01-17T19:21:45.675Z,-2.72
2023-01-17T19:24:14.338Z,-2.75
2023-01-17T19:26:43.205Z,-2.91
2023-01-17T19:29:12.465Z,-2.80
2023-01-17T19:31:43.591Z,-3.12
2023-01-17T19:34:15.983Z,-2.95
2023-01-17T19:36:44.556Z,-2.79
2023-01-17T19:39:13.245Z,-2.83
2023-01-17T19:41:44.557Z,-2.97
2023-01-17T19:44:15.634Z,-3.04
2023-01-17T19:46:46.052Z,-2.87
2023-01-17T19:49:19.750Z,-3.02
2023-01-17T19:51:49.547Z,-2.85
2023-01-17T19:54:18.247Z,-2.78
2023-01-17T19:56:46.601Z,-2.79
2023-01-17T19:59:15.100Z,-2.85
2023-01-17T20:01:43.633Z,-2.86
2023-01-17T20:04:12.785Z,-2.93
2023-01-17T20:06:42.869Z,-2.89
2023-01-17T20:09:14.217Z,-2.90
2023-01-17T20:11:43.177Z,-2.97
2023-01-17T20:14:15.238Z,-2.96
2023-01-17T20:16:44.892Z,-3.03
2023-01-17T20:19:13.292Z,-2.89
2023-01-17T20:21:43.284Z,-2.89
2023-01-17T20:24:13.584Z,-2.94
2023-01-17T20:26:44.054Z,-2.92
2023-01-17T20:29:15.714Z,-3.21
2023-01-17T20:31:45.839Z,-3.15
2023-01-17T20:34:18.674Z,-2.96
2023-01-17T20:36:48.845Z,-3.08
2023-01-17T20:39:18.027Z,-3.02
2023-01-17T20:41:46.638Z,-3.22
2023-01-17T20:44:16.548Z,-3.37
2023-01-17T20:46:45.558Z,-3.29
2023-01-17T20:49:16.173Z,-3.14
2023-01-17T20:51:45.527Z,-3.32
2023-01-17T20:54:17.799Z,-3.38
2023-01-17T20:56:48.026Z,-3.47
2023-01-17T20:59:18.921Z,-3.40
2023-01-17T21:01:47.419Z,-3.20
2023-01-17T21:04:16.701Z,-3.53
2023-01-17T21:06:45.571Z,-3.36
2023-01-17T21:09:17.292Z,-3.30
2023-01-17T21:11:45.862Z,-3.28
2023-01-17T21:14:14.691Z,-3.29
2023-01-17T21:16:43.606Z,-3.29
2023-01-17T21:19:15.989Z,-3.30
2023-01-17T21:21:44.405Z,-3.34
2023-01-17T21:24:18.716Z,-3.60
2023-01-17T21:26:49.593Z,-3.40
2023-01-17T21:29:18.176Z,-3.32
2023-01-17T21:31:46.584Z,-3.47
2023-01-17T21:34:15.254Z,-3.63
2023-01-17T21:36:44.530Z,-3.50
2023-01-17T21:39:17.165Z,-3.40
2023-01-17T21:41:48.270Z,-3.46
2023-01-17T21:44:20.252Z,-3.57
2023-01-17T21:46:53.611Z,-3.33
2023-01-17T21:49:23.767Z,-3.31
2023-01-17T21:52:09.768Z,-3.25
2023-01-17T21:54:56.939Z,-3.53
2023-01-17T21:57:42.746Z,-3.42
2023-01-17T22:00:15.508Z,-3.46
2023-01-17T22:02:44.688Z,-3.32
2023-01-17T22:05:13.926Z,-3.41
2023-01-17T22:08:02.784Z,-3.30
2023-01-17T22:10:32.941Z,-3.17
2023-01-17T22:13:01.386Z,-3.18
2023-01-17T22:15:29.900Z,-3.37
2023-01-17T22:17:58.874Z,-3.47
2023-01-17T22:20:30.111Z,-3.28
2023-01-17T22:22:58.919Z,-3.21
2023-01-17T22:25:27.576Z,-3.39
2023-01-17T22:27:57.599Z,-3.36
2023-01-17T22:30:26.186Z,-3.32
2023-01-17T22:32:57.137Z,-3.54
2023-01-17T22:35:27.022Z,-3.55
2023-01-17T22:37:55.481Z,-3.52
2023-01-17T22:40:24.078Z,-3.53
2023-01-17T22:42:52.392Z,-3.74
2023-01-17T22:45:22.141Z,-3.43
2023-01-17T22:47:50.515Z,-3.47
2023-01-17T22:50:19.329Z,-3.39
2023-01-17T22:52:47.745Z,-3.54
2023-01-17T22:55:16.203Z,-3.46
2023-01-17T22:57:47.077Z,-3.73
2023-01-17T23:00:17.033Z,-3.49
2023-01-17T23:02:46.823Z,-3.61
2023-01-17T23:05:15.272Z,-3.45
2023-01-17T23:07:46.620Z,-3.39
2023-01-17T23:10:38.149Z,-3.43
2023-01-17T23:13:10.451Z,-3.83
2023-01-17T23:15:57.222Z,-3.56
2023-01-17T23:18:44.868Z,-3.50
2023-01-17T23:21:13.319Z,-3.46
2023-01-17T23:23:41.710Z,-3.64
2023-01-17T23:26:10.047Z,-3.44
2023-01-17T23:28:37.538Z,-3.46
2023-01-17T23:31:06.825Z,-3.46
2023-01-17T23:33:36.744Z,-3.48
2023-01-17T23:36:09.317Z,-3.68
2023-01-17T23:38:40.769Z,-3.63
2023-01-17T23:41:28.431Z,-3.69
2023-01-17T23:43:58.705Z,-3.74
2023-01-17T23:46:30.267Z,-3.56
2023-01-17T23:49:00.199Z,-3.77
2023-01-17T23:51:30.320Z,-3.58
2023-01-17T23:54:05.299Z,-3.58
2023-01-17T23:56:34.376Z,-3.87
2023-01-17T23:59:04.500Z,-3.63
